sensor_id;sensor_type;location;lat;lon;timestamp;P1;durP1;ratioP1;P2;durP2;ratioP2
22186;SDS011;11259;52.146;12.844;2022-10-31T00:02:05;3.42;;;2.90;;
22186;SDS011;11259;52.146;12.844;2022-10-31T00:04:30;5.95;;;2.85;;
22186;SDS011;11259;52.146;12.844;2022-10-31T00:06:56;5.28;;;3.00;;
22186;SDS011;11259;52.146;12.844;2022-10-31T00:09:21;3.22;;;2.42;;
22186;SDS011;11259;52.146;12.844;2022-10-31T00:11:47;3.75;;;2.83;;
22186;SDS011;11259;52.146;12.844;2022-10-31T00:14:13;3.95;;;2.90;;
22186;SDS011;11259;52.146;12.844;2022-10-31T00:16:39;3.17;;;2.45;;
22186;SDS011;11259;52.146;12.844;2022-10-31T00:19:05;2.58;;;2.33;;
22186;SDS011;11259;52.146;12.844;2022-10-31T00:21:31;3.63;;;2.70;;
22186;SDS011;11259;52.146;12.844;2022-10-31T00:23:57;3.33;;;2.80;;
22186;SDS011;11259;52.146;12.844;2022-10-31T00:26:23;3.15;;;2.72;;
22186;SDS011;11259;52.146;12.844;2022-10-31T00:28:49;4.95;;;3.17;;
22186;SDS011;11259;52.146;12.844;2022-10-31T00:31:16;3.78;;;2.88;;
22186;SDS011;11259;52.146;12.844;2022-10-31T00:33:42;3.75;;;2.63;;
22186;SDS011;11259;52.146;12.844;2022-10-31T00:36:08;2.95;;;2.38;;
22186;SDS011;11259;52.146;12.844;2022-10-31T00:38:37;3.55;;;3.13;;
22186;SDS011;11259;52.146;12.844;2022-10-31T00:41:02;5.07;;;3.20;;
22186;SDS011;11259;52.146;12.844;2022-10-31T00:43:28;5.35;;;3.63;;
22186;SDS011;11259;52.146;12.844;2022-10-31T00:45:53;5.40;;;2.78;;
22186;SDS011;11259;52.146;12.844;2022-10-31T00:48:20;3.00;;;2.58;;
22186;SDS011;11259;52.146;12.844;2022-10-31T00:50:45;3.78;;;3.10;;
22186;SDS011;11259;52.146;12.844;2022-10-31T00:53:11;3.88;;;3.05;;
22186;SDS011;11259;52.146;12.844;2022-10-31T00:55:36;4.75;;;3.40;;
22186;SDS011;11259;52.146;12.844;2022-10-31T00:58:01;3.63;;;2.15;;
22186;SDS011;11259;52.146;12.844;2022-10-31T01:00:27;4.43;;;2.53;;
22186;SDS011;11259;52.146;12.844;2022-10-31T01:02:52;3.17;;;2.20;;
22186;SDS011;11259;52.146;12.844;2022-10-31T01:05:19;3.97;;;3.13;;
22186;SDS011;11259;52.146;12.844;2022-10-31T01:07:44;3.90;;;2.80;;
22186;SDS011;11259;52.146;12.844;2022-10-31T01:10:10;4.35;;;2.60;;
22186;SDS011;11259;52.146;12.844;2022-10-31T01:12:36;4.05;;;2.63;;
22186;SDS011;11259;52.146;12.844;2022-10-31T01:15:01;5.03;;;3.13;;
22186;SDS011;11259;52.146;12.844;2022-10-31T01:17:27;3.88;;;2.47;;
22186;SDS011;11259;52.146;12.844;2022-10-31T01:19:52;2.85;;;2.50;;
22186;SDS011;11259;52.146;12.844;2022-10-31T01:22:19;4.45;;;3.00;;
22186;SDS011;11259;52.146;12.844;2022-10-31T01:24:44;2.60;;;2.40;;
22186;SDS011;11259;52.146;12.844;2022-10-31T01:27:10;3.90;;;3.10;;
22186;SDS011;11259;52.146;12.844;2022-10-31T01:29:35;6.38;;;2.95;;
22186;SDS011;11259;52.146;12.844;2022-10-31T01:32:00;4.60;;;3.13;;
22186;SDS011;11259;52.146;12.844;2022-10-31T01:34:26;2.72;;;2.25;;
22186;SDS011;11259;52.146;12.844;2022-10-31T01:36:52;3.00;;;2.55;;
22186;SDS011;11259;52.146;12.844;2022-10-31T01:39:19;3.55;;;2.70;;
22186;SDS011;11259;52.146;12.844;2022-10-31T01:41:45;3.40;;;2.95;;
22186;SDS011;11259;52.146;12.844;2022-10-31T01:47:13;3.15;;;2.22;;
22186;SDS011;11259;52.146;12.844;2022-10-31T01:49:41;2.70;;;2.17;;
22186;SDS011;11259;52.146;12.844;2022-10-31T01:52:09;2.60;;;2.40;;
22186;SDS011;11259;52.146;12.844;2022-10-31T01:54:39;5.95;;;2.85;;
22186;SDS011;11259;52.146;12.844;2022-10-31T01:57:06;2.70;;;2.17;;
22186;SDS011;11259;52.146;12.844;2022-10-31T01:59:33;2.45;;;2.17;;
22186;SDS011;11259;52.146;12.844;2022-10-31T02:02:00;3.92;;;3.08;;
22186;SDS011;11259;52.146;12.844;2022-10-31T02:04:26;3.63;;;3.17;;
22186;SDS011;11259;52.146;12.844;2022-10-31T02:06:53;4.07;;;2.88;;
22186;SDS011;11259;52.146;12.844;2022-10-31T02:09:21;4.25;;;2.38;;
22186;SDS011;11259;52.146;12.844;2022-10-31T02:11:49;4.07;;;3.40;;
22186;SDS011;11259;52.146;12.844;2022-10-31T02:14:14;3.33;;;2.75;;
22186;SDS011;11259;52.146;12.844;2022-10-31T02:16:40;3.72;;;2.80;;
22186;SDS011;11259;52.146;12.844;2022-10-31T02:19:05;3.38;;;2.55;;
22186;SDS011;11259;52.146;12.844;2022-10-31T02:21:32;4.68;;;3.20;;
22186;SDS011;11259;52.146;12.844;2022-10-31T02:27:08;3.20;;;2.47;;
22186;SDS011;11259;52.146;12.844;2022-10-31T02:29:42;3.22;;;2.20;;
22186;SDS011;11259;52.146;12.844;2022-10-31T02:32:23;3.10;;;2.50;;
22186;SDS011;11259;52.146;12.844;2022-10-31T02:34:52;3.92;;;2.55;;
22186;SDS011;11259;52.146;12.844;2022-10-31T02:37:23;2.95;;;2.60;;
22186;SDS011;11259;52.146;12.844;2022-10-31T02:39:53;3.10;;;2.65;;
22186;SDS011;11259;52.146;12.844;2022-10-31T02:42:25;3.88;;;2.95;;
22186;SDS011;11259;52.146;12.844;2022-10-31T02:45:00;3.72;;;2.40;;
22186;SDS011;11259;52.146;12.844;2022-10-31T02:47:33;4.90;;;2.55;;
22186;SDS011;11259;52.146;12.844;2022-10-31T02:50:01;4.20;;;2.60;;
22186;SDS011;11259;52.146;12.844;2022-10-31T02:52:29;3.63;;;2.95;;
22186;SDS011;11259;52.146;12.844;2022-10-31T02:54:56;3.92;;;2.38;;
22186;SDS011;11259;52.146;12.844;2022-10-31T02:57:22;3.28;;;2.40;;
22186;SDS011;11259;52.146;12.844;2022-10-31T02:59:51;5.55;;;2.67;;
22186;SDS011;11259;52.146;12.844;2022-10-31T03:02:22;5.30;;;2.50;;
22186;SDS011;11259;52.146;12.844;2022-10-31T03:04:56;2.95;;;2.40;;
22186;SDS011;11259;52.146;12.844;2022-10-31T03:07:42;3.03;;;2.53;;
22186;SDS011;11259;52.146;12.844;2022-10-31T03:10:16;3.25;;;2.20;;
22186;SDS011;11259;52.146;12.844;2022-10-31T03:12:47;3.17;;;2.55;;
22186;SDS011;11259;52.146;12.844;2022-10-31T03:15:17;4.15;;;2.67;;
22186;SDS011;11259;52.146;12.844;2022-10-31T03:17:47;4.35;;;2.40;;
22186;SDS011;11259;52.146;12.844;2022-10-31T03:20:19;4.47;;;2.70;;
22186;SDS011;11259;52.146;12.844;2022-10-31T03:22:48;4.78;;;2.90;;
22186;SDS011;11259;52.146;12.844;2022-10-31T03:25:14;3.75;;;2.53;;
22186;SDS011;11259;52.146;12.844;2022-10-31T03:27:39;5.57;;;2.90;;
22186;SDS011;11259;52.146;12.844;2022-10-31T03:30:07;3.22;;;2.58;;
22186;SDS011;11259;52.146;12.844;2022-10-31T03:32:34;5.00;;;2.92;;
22186;SDS011;11259;52.146;12.844;2022-10-31T03:35:03;3.40;;;2.05;;
22186;SDS011;11259;52.146;12.844;2022-10-31T03:37:32;5.57;;;2.63;;
22186;SDS011;11259;52.146;12.844;2022-10-31T03:39:59;2.63;;;2.00;;
22186;SDS011;11259;52.146;12.844;2022-10-31T03:42:25;3.78;;;2.85;;
22186;SDS011;11259;52.146;12.844;2022-10-31T03:44:53;2.50;;;2.22;;
22186;SDS011;11259;52.146;12.844;2022-10-31T03:47:21;2.40;;;2.00;;
22186;SDS011;11259;52.146;12.844;2022-10-31T03:49:47;3.33;;;2.25;;
22186;SDS011;11259;52.146;12.844;2022-10-31T03:52:17;2.90;;;2.10;;
22186;SDS011;11259;52.146;12.844;2022-10-31T03:54:49;4.20;;;3.17;;
22186;SDS011;11259;52.146;12.844;2022-10-31T03:57:18;2.65;;;1.98;;
22186;SDS011;11259;52.146;12.844;2022-10-31T04:00:08;3.20;;;2.30;;
22186;SDS011;11259;52.146;12.844;2022-10-31T04:02:38;3.92;;;3.00;;
22186;SDS011;11259;52.146;12.844;2022-10-31T04:05:06;3.92;;;2.70;;
22186;SDS011;11259;52.146;12.844;2022-10-31T04:07:33;3.30;;;2.05;;
22186;SDS011;11259;52.146;12.844;2022-10-31T04:10:02;3.03;;;2.50;;
22186;SDS011;11259;52.146;12.844;2022-10-31T04:12:30;4.15;;;3.05;;
22186;SDS011;11259;52.146;12.844;2022-10-31T04:14:56;3.75;;;2.55;;
22186;SDS011;11259;52.146;12.844;2022-10-31T04:17:22;5.03;;;2.55;;
22186;SDS011;11259;52.146;12.844;2022-10-31T04:19:48;2.78;;;2.30;;
22186;SDS011;11259;52.146;12.844;2022-10-31T04:22:14;2.72;;;2.00;;
22186;SDS011;11259;52.146;12.844;2022-10-31T04:24:39;2.53;;;1.92;;
22186;SDS011;11259;52.146;12.844;2022-10-31T04:27:07;3.30;;;2.28;;
22186;SDS011;11259;52.146;12.844;2022-10-31T04:29:32;3.83;;;2.42;;
22186;SDS011;11259;52.146;12.844;2022-10-31T04:31:58;3.35;;;2.30;;
22186;SDS011;11259;52.146;12.844;2022-10-31T04:34:23;2.55;;;2.10;;
22186;SDS011;11259;52.146;12.844;2022-10-31T04:36:48;5.55;;;2.80;;
22186;SDS011;11259;52.146;12.844;2022-10-31T04:39:14;3.55;;;2.50;;
22186;SDS011;11259;52.146;12.844;2022-10-31T04:41:39;2.70;;;1.90;;
22186;SDS011;11259;52.146;12.844;2022-10-31T04:44:06;6.32;;;3.00;;
22186;SDS011;11259;52.146;12.844;2022-10-31T04:46:31;3.22;;;2.47;;
22186;SDS011;11259;52.146;12.844;2022-10-31T04:48:56;2.90;;;2.17;;
22186;SDS011;11259;52.146;12.844;2022-10-31T04:51:22;2.15;;;1.95;;
22186;SDS011;11259;52.146;12.844;2022-10-31T04:53:47;2.92;;;2.10;;
22186;SDS011;11259;52.146;12.844;2022-10-31T04:56:12;3.85;;;2.28;;
22186;SDS011;11259;52.146;12.844;2022-10-31T04:58:38;2.42;;;2.20;;
22186;SDS011;11259;52.146;12.844;2022-10-31T05:01:04;2.83;;;2.15;;
22186;SDS011;11259;52.146;12.844;2022-10-31T05:03:30;3.35;;;2.20;;
22186;SDS011;11259;52.146;12.844;2022-10-31T05:05:55;3.42;;;2.40;;
22186;SDS011;11259;52.146;12.844;2022-10-31T05:08:21;2.42;;;2.22;;
22186;SDS011;11259;52.146;12.844;2022-10-31T05:10:46;5.72;;;2.72;;
22186;SDS011;11259;52.146;12.844;2022-10-31T05:13:11;2.85;;;2.55;;
22186;SDS011;11259;52.146;12.844;2022-10-31T05:15:37;3.45;;;2.40;;
22186;SDS011;11259;52.146;12.844;2022-10-31T05:18:03;4.18;;;2.80;;
22186;SDS011;11259;52.146;12.844;2022-10-31T05:20:29;3.05;;;2.60;;
22186;SDS011;11259;52.146;12.844;2022-10-31T05:22:55;4.03;;;2.78;;
22186;SDS011;11259;52.146;12.844;2022-10-31T05:25:22;2.92;;;2.38;;
22186;SDS011;11259;52.146;12.844;2022-10-31T05:27:48;3.78;;;2.38;;
22186;SDS011;11259;52.146;12.844;2022-10-31T05:30:16;2.28;;;2.00;;
22186;SDS011;11259;52.146;12.844;2022-10-31T05:32:43;4.32;;;2.45;;
22186;SDS011;11259;52.146;12.844;2022-10-31T05:35:11;2.75;;;2.17;;
22186;SDS011;11259;52.146;12.844;2022-10-31T05:37:38;3.90;;;2.45;;
22186;SDS011;11259;52.146;12.844;2022-10-31T05:40:04;3.38;;;2.20;;
22186;SDS011;11259;52.146;12.844;2022-10-31T05:42:31;3.55;;;2.50;;
22186;SDS011;11259;52.146;12.844;2022-10-31T05:44:56;2.83;;;2.05;;
22186;SDS011;11259;52.146;12.844;2022-10-31T05:47:22;3.70;;;2.75;;
22186;SDS011;11259;52.146;12.844;2022-10-31T05:49:47;3.05;;;2.17;;
22186;SDS011;11259;52.146;12.844;2022-10-31T05:52:14;3.85;;;2.63;;
22186;SDS011;11259;52.146;12.844;2022-10-31T05:54:39;2.60;;;2.10;;
22186;SDS011;11259;52.146;12.844;2022-10-31T05:57:05;2.25;;;1.95;;
22186;SDS011;11259;52.146;12.844;2022-10-31T05:59:30;2.45;;;2.25;;
22186;SDS011;11259;52.146;12.844;2022-10-31T06:01:55;2.60;;;2.15;;
22186;SDS011;11259;52.146;12.844;2022-10-31T06:04:21;3.38;;;2.55;;
22186;SDS011;11259;52.146;12.844;2022-10-31T06:06:46;3.50;;;2.65;;
22186;SDS011;11259;52.146;12.844;2022-10-31T06:09:13;4.47;;;2.90;;
22186;SDS011;11259;52.146;12.844;2022-10-31T06:11:38;2.42;;;1.90;;
22186;SDS011;11259;52.146;12.844;2022-10-31T06:14:03;4.82;;;2.67;;
22186;SDS011;11259;52.146;12.844;2022-10-31T06:16:29;3.65;;;2.63;;
22186;SDS011;11259;52.146;12.844;2022-10-31T06:18:54;2.42;;;2.22;;
22186;SDS011;11259;52.146;12.844;2022-10-31T06:21:20;3.42;;;2.55;;
22186;SDS011;11259;52.146;12.844;2022-10-31T06:23:45;4.30;;;2.40;;
22186;SDS011;11259;52.146;12.844;2022-10-31T06:26:12;5.50;;;2.92;;
22186;SDS011;11259;52.146;12.844;2022-10-31T06:28:37;3.22;;;2.10;;
22186;SDS011;11259;52.146;12.844;2022-10-31T06:31:02;3.10;;;2.20;;
22186;SDS011;11259;52.146;12.844;2022-10-31T06:33:28;2.63;;;2.30;;
22186;SDS011;11259;52.146;12.844;2022-10-31T06:35:53;3.33;;;2.30;;
22186;SDS011;11259;52.146;12.844;2022-10-31T06:38:18;3.35;;;2.42;;
22186;SDS011;11259;52.146;12.844;2022-10-31T06:40:44;3.28;;;2.05;;
22186;SDS011;11259;52.146;12.844;2022-10-31T06:43:10;3.40;;;2.50;;
22186;SDS011;11259;52.146;12.844;2022-10-31T06:45:36;2.17;;;1.92;;
22186;SDS011;11259;52.146;12.844;2022-10-31T06:48:01;2.92;;;2.38;;
22186;SDS011;11259;52.146;12.844;2022-10-31T06:50:27;2.90;;;2.60;;
22186;SDS011;11259;52.146;12.844;2022-10-31T06:52:52;3.33;;;2.22;;
22186;SDS011;11259;52.146;12.844;2022-10-31T06:55:18;3.83;;;2.53;;
22186;SDS011;11259;52.146;12.844;2022-10-31T06:57:48;4.30;;;2.35;;
22186;SDS011;11259;52.146;12.844;2022-10-31T07:00:16;2.47;;;2.03;;
22186;SDS011;11259;52.146;12.844;2022-10-31T07:02:41;2.40;;;2.00;;
22186;SDS011;11259;52.146;12.844;2022-10-31T07:05:07;4.18;;;2.10;;
22186;SDS011;11259;52.146;12.844;2022-10-31T07:07:32;2.75;;;2.42;;
22186;SDS011;11259;52.146;12.844;2022-10-31T07:09:57;3.80;;;2.15;;
22186;SDS011;11259;52.146;12.844;2022-10-31T07:12:23;3.60;;;2.47;;
22186;SDS011;11259;52.146;12.844;2022-10-31T07:14:48;3.38;;;2.42;;
22186;SDS011;11259;52.146;12.844;2022-10-31T07:17:15;3.17;;;2.75;;
22186;SDS011;11259;52.146;12.844;2022-10-31T07:19:40;3.13;;;2.83;;
22186;SDS011;11259;52.146;12.844;2022-10-31T07:22:05;4.07;;;2.60;;
22186;SDS011;11259;52.146;12.844;2022-10-31T07:24:31;3.63;;;2.58;;
22186;SDS011;11259;52.146;12.844;2022-10-31T07:26:56;6.45;;;2.67;;
22186;SDS011;11259;52.146;12.844;2022-10-31T07:29:21;5.93;;;3.38;;
22186;SDS011;11259;52.146;12.844;2022-10-31T07:31:47;3.85;;;2.88;;
22186;SDS011;11259;52.146;12.844;2022-10-31T07:34:13;5.35;;;3.40;;
22186;SDS011;11259;52.146;12.844;2022-10-31T07:36:38;4.65;;;2.42;;
22186;SDS011;11259;52.146;12.844;2022-10-31T07:39:04;4.03;;;2.88;;
22186;SDS011;11259;52.146;12.844;2022-10-31T07:41:29;2.55;;;2.08;;
22186;SDS011;11259;52.146;12.844;2022-10-31T07:43:54;3.80;;;2.70;;
22186;SDS011;11259;52.146;12.844;2022-10-31T07:46:21;3.45;;;2.80;;
22186;SDS011;11259;52.146;12.844;2022-10-31T07:48:46;4.30;;;2.60;;
22186;SDS011;11259;52.146;12.844;2022-10-31T07:51:13;5.53;;;2.80;;
22186;SDS011;11259;52.146;12.844;2022-10-31T07:53:38;3.53;;;2.35;;
22186;SDS011;11259;52.146;12.844;2022-10-31T07:56:04;4.07;;;2.53;;
22186;SDS011;11259;52.146;12.844;2022-10-31T07:58:29;4.03;;;3.05;;
22186;SDS011;11259;52.146;12.844;2022-10-31T08:00:54;4.82;;;3.17;;
22186;SDS011;11259;52.146;12.844;2022-10-31T08:03:20;2.40;;;2.08;;
22186;SDS011;11259;52.146;12.844;2022-10-31T08:05:45;4.00;;;2.65;;
22186;SDS011;11259;52.146;12.844;2022-10-31T08:08:12;3.50;;;2.95;;
22186;SDS011;11259;52.146;12.844;2022-10-31T08:10:38;4.78;;;2.90;;
22186;SDS011;11259;52.146;12.844;2022-10-31T08:13:05;3.42;;;2.58;;
22186;SDS011;11259;52.146;12.844;2022-10-31T08:15:31;3.35;;;2.55;;
22186;SDS011;11259;52.146;12.844;2022-10-31T08:17:57;5.60;;;3.25;;
22186;SDS011;11259;52.146;12.844;2022-10-31T08:20:22;7.22;;;3.40;;
22186;SDS011;11259;52.146;12.844;2022-10-31T08:22:54;4.90;;;3.30;;
22186;SDS011;11259;52.146;12.844;2022-10-31T08:25:22;6.07;;;4.15;;
22186;SDS011;11259;52.146;12.844;2022-10-31T08:27:48;4.05;;;2.97;;
22186;SDS011;11259;52.146;12.844;2022-10-31T08:30:14;5.18;;;3.55;;
22186;SDS011;11259;52.146;12.844;2022-10-31T08:32:40;5.20;;;3.15;;
22186;SDS011;11259;52.146;12.844;2022-10-31T08:35:05;6.45;;;4.00;;
22186;SDS011;11259;52.146;12.844;2022-10-31T08:37:31;7.22;;;4.03;;
22186;SDS011;11259;52.146;12.844;2022-10-31T08:39:56;5.63;;;4.13;;
22186;SDS011;11259;52.146;12.844;2022-10-31T08:42:23;8.57;;;4.25;;
22186;SDS011;11259;52.146;12.844;2022-10-31T08:44:48;6.10;;;4.30;;
22186;SDS011;11259;52.146;12.844;2022-10-31T08:47:13;5.47;;;3.80;;
22186;SDS011;11259;52.146;12.844;2022-10-31T08:49:39;6.95;;;4.07;;
22186;SDS011;11259;52.146;12.844;2022-10-31T08:52:04;6.28;;;3.83;;
22186;SDS011;11259;52.146;12.844;2022-10-31T08:54:29;6.90;;;4.60;;
22186;SDS011;11259;52.146;12.844;2022-10-31T08:56:55;6.25;;;4.20;;
22186;SDS011;11259;52.146;12.844;2022-10-31T08:59:22;6.78;;;4.55;;
22186;SDS011;11259;52.146;12.844;2022-10-31T09:01:47;7.00;;;4.72;;
22186;SDS011;11259;52.146;12.844;2022-10-31T09:04:12;7.30;;;4.55;;
22186;SDS011;11259;52.146;12.844;2022-10-31T09:06:37;7.70;;;5.30;;
22186;SDS011;11259;52.146;12.844;2022-10-31T09:09:03;5.72;;;4.25;;
22186;SDS011;11259;52.146;12.844;2022-10-31T09:11:29;6.53;;;4.53;;
22186;SDS011;11259;52.146;12.844;2022-10-31T09:13:54;10.75;;;5.53;;
22186;SDS011;11259;52.146;12.844;2022-10-31T09:16:21;8.00;;;4.63;;
22186;SDS011;11259;52.146;12.844;2022-10-31T09:18:46;8.50;;;5.40;;
22186;SDS011;11259;52.146;12.844;2022-10-31T09:21:12;7.40;;;4.88;;
22186;SDS011;11259;52.146;12.844;2022-10-31T09:23:37;7.35;;;5.03;;
22186;SDS011;11259;52.146;12.844;2022-10-31T09:26:03;8.00;;;4.95;;
22186;SDS011;11259;52.146;12.844;2022-10-31T09:28:28;9.25;;;6.38;;
22186;SDS011;11259;52.146;12.844;2022-10-31T09:30:54;9.40;;;5.82;;
22186;SDS011;11259;52.146;12.844;2022-10-31T09:33:21;8.38;;;5.18;;
22186;SDS011;11259;52.146;12.844;2022-10-31T09:35:46;8.85;;;5.85;;
22186;SDS011;11259;52.146;12.844;2022-10-31T09:38:13;7.70;;;4.97;;
22186;SDS011;11259;52.146;12.844;2022-10-31T09:40:40;7.55;;;5.60;;
22186;SDS011;11259;52.146;12.844;2022-10-31T09:43:09;9.02;;;6.05;;
22186;SDS011;11259;52.146;12.844;2022-10-31T09:45:41;8.13;;;5.75;;
22186;SDS011;11259;52.146;12.844;2022-10-31T09:48:15;10.82;;;5.95;;
22186;SDS011;11259;52.146;12.844;2022-10-31T09:50:49;9.40;;;5.65;;
22186;SDS011;11259;52.146;12.844;2022-10-31T09:53:20;10.88;;;6.57;;
22186;SDS011;11259;52.146;12.844;2022-10-31T09:55:49;10.23;;;5.40;;
22186;SDS011;11259;52.146;12.844;2022-10-31T09:58:16;8.05;;;5.53;;
22186;SDS011;11259;52.146;12.844;2022-10-31T10:00:44;11.02;;;6.63;;
22186;SDS011;11259;52.146;12.844;2022-10-31T10:03:12;10.23;;;6.40;;
22186;SDS011;11259;52.146;12.844;2022-10-31T10:05:45;8.85;;;6.25;;
22186;SDS011;11259;52.146;12.844;2022-10-31T10:08:16;9.60;;;6.13;;
22186;SDS011;11259;52.146;12.844;2022-10-31T10:10:45;9.38;;;6.05;;
22186;SDS011;11259;52.146;12.844;2022-10-31T10:13:29;9.20;;;6.82;;
22186;SDS011;11259;52.146;12.844;2022-10-31T10:16:03;10.15;;;6.55;;
22186;SDS011;11259;52.146;12.844;2022-10-31T10:18:38;11.57;;;6.90;;
22186;SDS011;11259;52.146;12.844;2022-10-31T10:23:56;13.15;;;6.82;;
22186;SDS011;11259;52.146;12.844;2022-10-31T10:26:28;10.27;;;6.35;;
22186;SDS011;11259;52.146;12.844;2022-10-31T10:28:56;9.82;;;5.95;;
22186;SDS011;11259;52.146;12.844;2022-10-31T10:31:24;9.75;;;6.57;;
22186;SDS011;11259;52.146;12.844;2022-10-31T10:33:55;9.52;;;5.75;;
22186;SDS011;11259;52.146;12.844;2022-10-31T10:36:28;11.48;;;6.68;;
22186;SDS011;11259;52.146;12.844;2022-10-31T10:38:58;9.10;;;6.20;;
22186;SDS011;11259;52.146;12.844;2022-10-31T10:41:26;10.45;;;6.53;;
22186;SDS011;11259;52.146;12.844;2022-10-31T10:43:53;10.10;;;6.78;;
22186;SDS011;11259;52.146;12.844;2022-10-31T10:46:19;8.48;;;5.88;;
22186;SDS011;11259;52.146;12.844;2022-10-31T10:48:48;8.13;;;6.20;;
22186;SDS011;11259;52.146;12.844;2022-10-31T10:51:21;10.88;;;6.85;;
22186;SDS011;11259;52.146;12.844;2022-10-31T10:53:52;8.02;;;5.75;;
22186;SDS011;11259;52.146;12.844;2022-10-31T10:56:29;12.55;;;7.10;;
22186;SDS011;11259;52.146;12.844;2022-10-31T11:02:03;11.27;;;7.13;;
22186;SDS011;11259;52.146;12.844;2022-10-31T11:04:30;14.52;;;7.80;;
22186;SDS011;11259;52.146;12.844;2022-10-31T11:06:57;9.73;;;7.03;;
22186;SDS011;11259;52.146;12.844;2022-10-31T11:09:28;10.63;;;6.50;;
22186;SDS011;11259;52.146;12.844;2022-10-31T11:11:53;10.38;;;6.25;;
22186;SDS011;11259;52.146;12.844;2022-10-31T11:14:19;10.20;;;6.65;;
22186;SDS011;11259;52.146;12.844;2022-10-31T11:16:45;11.40;;;6.68;;
22186;SDS011;11259;52.146;12.844;2022-10-31T11:19:13;10.27;;;6.50;;
22186;SDS011;11259;52.146;12.844;2022-10-31T11:21:41;10.68;;;6.70;;
22186;SDS011;11259;52.146;12.844;2022-10-31T11:24:11;13.25;;;6.32;;
22186;SDS011;11259;52.146;12.844;2022-10-31T11:26:40;10.35;;;6.63;;
22186;SDS011;11259;52.146;12.844;2022-10-31T11:29:10;13.20;;;7.32;;
22186;SDS011;11259;52.146;12.844;2022-10-31T11:31:38;13.57;;;7.78;;
22186;SDS011;11259;52.146;12.844;2022-10-31T11:34:05;10.02;;;6.72;;
22186;SDS011;11259;52.146;12.844;2022-10-31T11:36:32;11.40;;;7.47;;
22186;SDS011;11259;52.146;12.844;2022-10-31T11:38:59;9.93;;;6.75;;
22186;SDS011;11259;52.146;12.844;2022-10-31T11:41:25;8.95;;;6.25;;
22186;SDS011;11259;52.146;12.844;2022-10-31T11:43:55;12.48;;;7.22;;
22186;SDS011;11259;52.146;12.844;2022-10-31T11:46:23;14.55;;;8.57;;
22186;SDS011;11259;52.146;12.844;2022-10-31T11:48:53;10.07;;;6.93;;
22186;SDS011;11259;52.146;12.844;2022-10-31T11:51:22;11.77;;;7.88;;
22186;SDS011;11259;52.146;12.844;2022-10-31T11:53:51;11.50;;;6.70;;
22186;SDS011;11259;52.146;12.844;2022-10-31T11:56:17;10.23;;;7.22;;
22186;SDS011;11259;52.146;12.844;2022-10-31T11:58:42;11.38;;;7.55;;
22186;SDS011;11259;52.146;12.844;2022-10-31T12:01:20;11.90;;;6.43;;
22186;SDS011;11259;52.146;12.844;2022-10-31T12:03:51;13.00;;;8.20;;
22186;SDS011;11259;52.146;12.844;2022-10-31T12:06:20;15.70;;;8.00;;
22186;SDS011;11259;52.146;12.844;2022-10-31T12:08:48;15.20;;;8.07;;
22186;SDS011;11259;52.146;12.844;2022-10-31T12:11:27;13.55;;;8.43;;
22186;SDS011;11259;52.146;12.844;2022-10-31T12:14:05;12.63;;;7.75;;
22186;SDS011;11259;52.146;12.844;2022-10-31T12:16:36;11.52;;;6.90;;
22186;SDS011;11259;52.146;12.844;2022-10-31T12:19:05;10.30;;;6.30;;
22186;SDS011;11259;52.146;12.844;2022-10-31T12:21:36;11.85;;;7.43;;
22186;SDS011;11259;52.146;12.844;2022-10-31T12:24:12;11.38;;;8.18;;
22186;SDS011;11259;52.146;12.844;2022-10-31T12:26:45;12.57;;;8.20;;
22186;SDS011;11259;52.146;12.844;2022-10-31T12:29:21;11.52;;;6.95;;
22186;SDS011;11259;52.146;12.844;2022-10-31T12:32:03;11.85;;;7.28;;
22186;SDS011;11259;52.146;12.844;2022-10-31T12:34:44;16.02;;;7.85;;
22186;SDS011;11259;52.146;12.844;2022-10-31T12:37:15;12.07;;;7.68;;
22186;SDS011;11259;52.146;12.844;2022-10-31T12:39:49;12.55;;;7.15;;
22186;SDS011;11259;52.146;12.844;2022-10-31T12:42:20;11.00;;;6.45;;
22186;SDS011;11259;52.146;12.844;2022-10-31T12:45:04;10.15;;;6.63;;
22186;SDS011;11259;52.146;12.844;2022-10-31T12:47:44;12.43;;;7.90;;
22186;SDS011;11259;52.146;12.844;2022-10-31T12:50:28;11.18;;;7.75;;
22186;SDS011;11259;52.146;12.844;2022-10-31T12:53:02;12.20;;;7.55;;
22186;SDS011;11259;52.146;12.844;2022-10-31T12:55:38;15.63;;;7.95;;
22186;SDS011;11259;52.146;12.844;2022-10-31T12:58:07;10.10;;;6.45;;
22186;SDS011;11259;52.146;12.844;2022-10-31T13:00:35;11.93;;;7.57;;
22186;SDS011;11259;52.146;12.844;2022-10-31T13:03:09;13.35;;;8.05;;
22186;SDS011;11259;52.146;12.844;2022-10-31T13:05:44;12.82;;;7.93;;
22186;SDS011;11259;52.146;12.844;2022-10-31T13:08:14;10.98;;;7.18;;
22186;SDS011;11259;52.146;12.844;2022-10-31T13:10:42;12.77;;;7.90;;
22186;SDS011;11259;52.146;12.844;2022-10-31T13:13:11;12.30;;;7.53;;
22186;SDS011;11259;52.146;12.844;2022-10-31T13:15:41;11.27;;;7.13;;
22186;SDS011;11259;52.146;12.844;2022-10-31T13:18:16;15.90;;;8.50;;
22186;SDS011;11259;52.146;12.844;2022-10-31T13:20:47;12.73;;;7.65;;
22186;SDS011;11259;52.146;12.844;2022-10-31T13:23:14;16.55;;;8.48;;
22186;SDS011;11259;52.146;12.844;2022-10-31T13:25:44;12.57;;;7.28;;
22186;SDS011;11259;52.146;12.844;2022-10-31T13:28:12;14.27;;;7.22;;
22186;SDS011;11259;52.146;12.844;2022-10-31T13:33:13;14.90;;;8.47;;
22186;SDS011;11259;52.146;12.844;2022-10-31T13:35:41;10.55;;;7.63;;
22186;SDS011;11259;52.146;12.844;2022-10-31T13:38:10;12.18;;;7.35;;
22186;SDS011;11259;52.146;12.844;2022-10-31T13:40:42;11.82;;;7.53;;
22186;SDS011;11259;52.146;12.844;2022-10-31T13:43:12;10.23;;;7.97;;
22186;SDS011;11259;52.146;12.844;2022-10-31T13:45:47;15.43;;;9.05;;
22186;SDS011;11259;52.146;12.844;2022-10-31T13:48:19;12.07;;;8.00;;
22186;SDS011;11259;52.146;12.844;2022-10-31T13:50:59;12.75;;;7.60;;
22186;SDS011;11259;52.146;12.844;2022-10-31T13:53:35;12.63;;;7.20;;
22186;SDS011;11259;52.146;12.844;2022-10-31T13:56:11;12.23;;;6.82;;
22186;SDS011;11259;52.146;12.844;2022-10-31T13:58:40;13.20;;;7.75;;
22186;SDS011;11259;52.146;12.844;2022-10-31T14:01:15;10.32;;;7.53;;
22186;SDS011;11259;52.146;12.844;2022-10-31T14:03:44;16.83;;;7.70;;
22186;SDS011;11259;52.146;12.844;2022-10-31T14:06:10;11.38;;;7.43;;
22186;SDS011;11259;52.146;12.844;2022-10-31T14:08:37;13.63;;;8.50;;
22186;SDS011;11259;52.146;12.844;2022-10-31T14:11:04;10.77;;;7.03;;
22186;SDS011;11259;52.146;12.844;2022-10-31T14:13:31;13.57;;;8.20;;
22186;SDS011;11259;52.146;12.844;2022-10-31T14:15:59;11.23;;;7.03;;
22186;SDS011;11259;52.146;12.844;2022-10-31T14:18:28;13.10;;;7.45;;
22186;SDS011;11259;52.146;12.844;2022-10-31T14:20:57;10.95;;;7.20;;
22186;SDS011;11259;52.146;12.844;2022-10-31T14:26:20;15.57;;;8.93;;
22186;SDS011;11259;52.146;12.844;2022-10-31T14:28:55;13.30;;;7.97;;
22186;SDS011;11259;52.146;12.844;2022-10-31T14:31:32;11.85;;;7.18;;
22186;SDS011;11259;52.146;12.844;2022-10-31T14:34:00;13.90;;;7.40;;
22186;SDS011;11259;52.146;12.844;2022-10-31T14:36:30;13.63;;;7.68;;
22186;SDS011;11259;52.146;12.844;2022-10-31T14:39:02;14.48;;;8.18;;
22186;SDS011;11259;52.146;12.844;2022-10-31T14:41:45;12.73;;;7.13;;
22186;SDS011;11259;52.146;12.844;2022-10-31T14:47:16;12.27;;;6.68;;
22186;SDS011;11259;52.146;12.844;2022-10-31T14:49:50;13.07;;;7.47;;
22186;SDS011;11259;52.146;12.844;2022-10-31T14:52:29;12.52;;;7.07;;
22186;SDS011;11259;52.146;12.844;2022-10-31T14:54:55;12.85;;;7.95;;
22186;SDS011;11259;52.146;12.844;2022-10-31T14:57:22;16.77;;;9.82;;